x

Tanner Bank - 121nm West Of San Diego, Ca (46047) Wave Buoy

8:50 - Fri 20th Jan 2017 All times are PST. -8 hours from GMT.

  • Sig Wave height 11.2ft
  • Swell Direction
  • Peak Period 14s
  • Average Period 9s
  • Wind
    25mph, 31mph gusts
  • Sea Temp 59°f
  • Luft Temp 58°f
  • Sea Pressure 1006mb
  • Tanner Bank - 121nm West Of San Diego, Ca
  • Tanner Bank - 121nm West Of San Diego, Ca

More Historic Weather Station data

Upgrade to MSW Pro to gain access to the past 30 days of data for over 8000 Wavebouys and Weather Stations around the globe.

Join Pro

Comparision Forecast

View Surf forecast
   
Fr 01/20 8:50 11ft 14s 9s 25 31 mph 1006mb 59f 58f
7:50 13.5ft 14s 10s 20 27 mph 1006.9mb 59f 59f
6:50 12ft 13s 9s 18 20 mph 1007.3mb 59f 58f
5:50 14ft 14s 10s 18 22 mph 1008.2mb 59f 58f
4:50 11ft 15s 9s 20 25 mph 1008.5mb 59f 58f
3:50 10.5ft 13s 9s 16 20 mph 1009.7mb 59f 58f
2:50 11ft 12s 9s 18 20 mph 1010.3mb 59f 59f
1:50 10ft 13s 9s 13 18 mph 1010.6mb 59f 59f
12:50 9ft 12s 8s 16 20 mph 1011.8mb 59f 59f
Do 01/19 11:50 9ft 13s 8s 13 16 mph 1012.2mb 59f 59f
10:50 8ft 13s 8s 11 16 mph 1012.7mb 59f 59f
9:50 8.5ft 11s 8s 13 18 mph 1013.8mb 59f 59f
8:50 9ft 12s 8s 13 16 mph 1013.9mb 59f 59f
7:50 8ft 12s 8s 13 18 mph 1013.9mb 59f 59f
6:50 8ft 12s 8s 13 18 mph 1013.8mb 59f 59f
5:50 10ft 14s 9s 11 13 mph 1014.1mb 59f 59f
3:50 8.5ft 12s 8s 7 9 mph 1014.1mb 60f 59f
2:50 9.5ft 13s 9s 9 11 mph 1014mb 60f 59f
1:50 9ft 14s 8s 11 13 mph 1014.5mb 60f 59f
12:50 9ft 13s 8s 11 16 mph 1015.4mb 60f 59f
11:50 9.5ft 14s 8s 16 18 mph 1016mb 60f 59f
10:50 10ft 13s 7s 13 16 mph 1016.2mb 60f 59f
9:50 9ft 13s 7s 13 18 mph 1016.2mb 60f 59f
8:50 9ft 13s 7s 16 20 mph 1015.9mb 60f 60f
7:50 9ft 13s 7s 13 16 mph 1015.1mb 60f 59f
6:50 9ft 13s 7s 13 18 mph 1014.8mb 60f 58f
4:50 9ft 14s 6s 27 34 mph 1013.5mb 60f 58f
3:50 8ft 13s 6s 29 36 mph 1014.4mb 60f 58f
2:50 7ft 14s 6s 25 31 mph 1015.4mb 60f 60f
1:50 8ft 14s 7s 22 29 mph 1016.2mb 60f 60f
12:50 7.5ft 14s 7s 22 27 mph 1016.4mb 60f 60f
Mi 01/18 11:50 7ft 14s 7s 22 29 mph 1015.7mb 60f 59f
10:50 7.5ft 14s 8s 25 29 mph 1015.9mb 60f 59f
9:50 6ft 15s 9s 22 27 mph 1015.8mb 60f 59f
8:50 7ft 14s 11s 22 25 mph 1016.3mb 60f 58f
7:50 7ft 15s 12s 7 9 mph 1020.2mb 60f 58f
6:50 6.5ft 14s 11s 4 9 mph 1020.4mb 60f 59f
5:50 6ft 15s 10s 7 9 mph 1020.3mb 60f 59f
4:50 6ft 15s 10s 9 13 mph 1020.6mb 60f 59f
3:50 6ft 15s 11s 9 13 mph 1020mb 60f 59f
2:50 7ft 15s 11s 9 11 mph 1020mb 61f 58f
1:50 6ft 15s 11s 9 11 mph 1019.5mb 61f 58f
12:50 6ft 16s 11s 9 11 mph 1020.1mb 61f 58f
11:50 5.5ft 15s 11s 9 11 mph 1020.9mb 61f 58f
10:50 5.5ft 15s 11s 7 9 mph 1021.6mb 60f 58f
9:50 5ft 15s 10s 4 7 mph 1022.4mb 60f 58f
8:50 5ft 16s 10s 9 11 mph 1022.2mb 60f 57f
7:50 6ft 13s 11s 9 11 mph 1021.7mb 60f 57f
6:50 5ft 15s 10s 9 13 mph 1021.9mb 60f 57f
5:50 5ft 15s 11s 9 11 mph 1021.1mb 60f 57f
4:50 5ft 13s 10s 9 11 mph 1021mb 60f 57f
3:50 5ft 14s 10s 4 7 mph 1021.3mb 60f 57f
2:50 5ft 13s 10s 4 7 mph 1020.9mb 60f 56f
1:50 4.5ft 13s 9s 4 7 mph 1021.2mb 60f 57f
12:50 5ft 14s 9s 4 7 mph 1021.5mb 60f 57f
Di 01/17 11:50 4.5ft 14s 9s 4 7 mph 1021.7mb 61f 57f
10:50 4.5ft 14s 9s 9 11 mph 1021.9mb 61f 57f
9:50 4.5ft 14s 9s 13 16 mph 1021.7mb 61f 57f
8:50 5.5ft 14s 10s 9 11 mph 1021.1mb 61f 57f
7:50 5ft 14s 9s 9 11 mph 1020.8mb 61f 57f
6:50 6ft 14s 10s 9 13 mph 1020.5mb 61f 57f
5:50 5.5ft 15s 9s 11 13 mph 1020.7mb 61f 57f
4:50 6ft 14s 10s 11 13 mph 1020.2mb 61f 57f
3:50 6.5ft 15s 10s 7 9 mph 1019.6mb 61f 57f
2:50 6ft 15s 10s 11 16 mph 1019.9mb 61f 57f
1:50 6ft 15s 10s 2
mph
1019.3mb 60f 58f
12:50 6.5ft 15s 10s 2 4 mph 1019mb 60f 58f
11:50 6ft 15s 10s 4 7 mph 1019.7mb 59f 57f
10:50 6ft 15s 10s 7 9 mph 1020.3mb 59f 57f
9:50 6ft 15s 10s 7 9 mph 1020.2mb 59f 57f
8:50 6ft 15s 11s 4 7 mph 1019.9mb 59f 57f
7:50 5ft 14s 11s 7 9 mph 1019.4mb 60f 57f
6:50 6.5ft 15s 11s 7 9 mph 1019.1mb 60f 57f
5:50 5.5ft 15s 10s 9 11 mph 1018.9mb 60f 57f
4:50 7ft 15s 12s 9 11 mph 1018.4mb 60f 57f
3:50 6ft 16s 11s 7 9 mph 1018.3mb 60f 57f
2:50 6.5ft 15s 11s 7 9 mph 1018.5mb 60f 57f
1:50 6ft 15s 10s 9 11 mph 1018.3mb 60f 57f
12:50 6.5ft 16s 11s 9 11 mph 1018.3mb 60f 57f
Mo 01/16 11:50 6ft 16s 10s 7 9 mph 1018.7mb 60f 57f
10:50 6.5ft 16s 10s 7 9 mph 1018.6mb 60f 57f
9:50 7.5ft 16s 11s 9 11 mph 1018.2mb 60f 57f
8:50 6.5ft 16s 10s 7 9 mph 1018.1mb 60f 58f
7:50 6ft 16s 10s 11 13 mph 1017.8mb 60f 58f
6:50 7ft 16s 10s 9 11 mph 1017.7mb 60f 58f